createdAt,value
2023-02-20T00:00:25.545Z,14.45
2023-02-20T00:02:52.826Z,12.25
2023-02-20T00:05:20.253Z,14.15
2023-02-20T00:07:47.734Z,12.80
2023-02-20T00:10:15.354Z,13.35
2023-02-20T00:12:42.637Z,14.73
2023-02-20T00:15:10.646Z,14.55
2023-02-20T00:17:37.972Z,14.45
2023-02-20T00:20:05.538Z,13.13
2023-02-20T00:22:32.905Z,14.50
2023-02-20T00:25:00.155Z,14.38
2023-02-20T00:27:27.698Z,14.35
2023-02-20T00:29:54.942Z,16.23
2023-02-20T00:32:22.309Z,14.65
2023-02-20T00:34:49.663Z,15.02
2023-02-20T00:37:16.945Z,14.10
2023-02-20T00:39:44.196Z,14.80
2023-02-20T00:42:11.418Z,12.93
2023-02-20T00:44:39.031Z,14.25
2023-02-20T00:47:07.071Z,13.18
2023-02-20T00:49:34.311Z,16.27
2023-02-20T00:52:15.048Z,14.45
2023-02-20T00:54:42.630Z,14.82
2023-02-20T00:57:09.930Z,13.82
2023-02-20T00:59:37.173Z,18.05
2023-02-20T01:02:04.695Z,14.45
2023-02-20T01:04:31.994Z,16.05
2023-02-20T01:06:59.222Z,17.55
2023-02-20T01:09:28.091Z,16.42
2023-02-20T01:11:55.473Z,14.32
2023-02-20T01:14:23.126Z,14.15
2023-02-20T01:16:52.062Z,14.00
2023-02-20T01:19:20.541Z,17.10
2023-02-20T01:21:48.774Z,15.95
2023-02-20T01:24:16.554Z,14.57
2023-02-20T01:26:44.419Z,14.98
2023-02-20T01:29:11.765Z,14.63
2023-02-20T01:31:39.134Z,15.10
2023-02-20T01:34:09.360Z,18.52
2023-02-20T01:36:38.076Z,17.38
2023-02-20T01:39:06.406Z,17.02
2023-02-20T01:41:33.632Z,18.73
2023-02-20T01:44:01.583Z,15.65
2023-02-20T01:46:28.918Z,15.27
2023-02-20T01:49:06.586Z,15.85
2023-02-20T01:51:36.236Z,16.00
2023-02-20T01:54:03.924Z,17.00
2023-02-20T01:56:32.759Z,18.92
2023-02-20T01:59:00.121Z,18.08
2023-02-20T02:01:27.411Z,19.83
2023-02-20T02:03:58.640Z,17.15
2023-02-20T02:06:25.946Z,18.73
2023-02-20T02:08:53.947Z,20.98
2023-02-20T02:11:23.647Z,16.58
2023-02-20T02:13:50.874Z,23.20
2023-02-20T02:16:33.404Z,23.25
2023-02-20T02:19:06.952Z,19.95
2023-02-20T02:21:36.988Z,22.65
2023-02-20T02:24:04.220Z,20.60
2023-02-20T02:26:51.948Z,23.75
2023-02-20T02:29:34.568Z,23.15
2023-02-20T02:32:05.591Z,24.42
2023-02-20T02:34:44.611Z,22.38
2023-02-20T02:37:30.776Z,25.52
2023-02-20T02:40:08.216Z,25.20
2023-02-20T02:42:42.952Z,25.48
2023-02-20T02:45:33.568Z,21.77
2023-02-20T02:48:04.994Z,27.83
2023-02-20T02:50:37.016Z,24.15
2023-02-20T02:53:08.771Z,24.52
2023-02-20T02:55:36.278Z,26.27
2023-02-20T02:58:04.742Z,25.58
2023-02-20T03:00:38.748Z,25.27
2023-02-20T03:03:15.161Z,30.83
2023-02-20T03:05:58.006Z,28.50
2023-02-20T03:08:38.631Z,26.85
2023-02-20T03:11:07.757Z,33.75
2023-02-20T03:14:00.098Z,26.40
2023-02-20T03:16:30.769Z,27.80
2023-02-20T03:18:59.328Z,29.50
2023-02-20T03:21:27.102Z,30.27
2023-02-20T03:23:57.994Z,28.17
2023-02-20T03:26:29.414Z,30.02
2023-02-20T03:28:59.017Z,30.60
2023-02-20T03:34:15.670Z,28.70
2023-02-20T03:37:07.306Z,26.30
2023-02-20T03:39:56.899Z,27.55
2023-02-20T03:42:44.199Z,32.40
2023-02-20T03:45:23.250Z,33.38
2023-02-20T03:47:53.650Z,30.17
2023-02-20T03:50:41.081Z,32.45
2023-02-20T03:53:08.777Z,33.17
2023-02-20T03:55:36.102Z,31.02
2023-02-20T03:58:08.631Z,29.38
2023-02-20T04:00:39.206Z,30.58
2023-02-20T04:03:09.585Z,34.05
2023-02-20T04:05:42.176Z,31.58
2023-02-20T04:08:16.495Z,31.38
2023-02-20T04:10:47.161Z,28.60
2023-02-20T04:13:15.731Z,29.98
2023-02-20T04:15:47.253Z,28.45
2023-02-20T04:18:18.277Z,29.02
2023-02-20T04:20:50.660Z,33.65
2023-02-20T04:23:26.825Z,31.15
2023-02-20T04:25:54.134Z,29.08
2023-02-20T04:28:21.432Z,29.52
2023-02-20T04:30:55.839Z,32.70
2023-02-20T04:33:23.457Z,31.35
2023-02-20T04:35:54.727Z,30.83
2023-02-20T04:38:22.105Z,30.85
2023-02-20T04:40:50.734Z,33.85
2023-02-20T04:43:19.119Z,33.95
2023-02-20T04:45:46.628Z,34.83
2023-02-20T04:48:13.967Z,33.90
2023-02-20T04:50:42.825Z,29.48
2023-02-20T04:53:11.910Z,28.98
2023-02-20T04:55:39.238Z,32.88
2023-02-20T04:58:11.197Z,32.38
2023-02-20T05:00:50.887Z,37.88
2023-02-20T05:03:18.193Z,34.83
2023-02-20T05:05:45.471Z,30.58
2023-02-20T05:08:12.714Z,29.95
2023-02-20T05:10:40.074Z,32.85
2023-02-20T05:13:07.336Z,36.08
2023-02-20T05:15:34.587Z,35.53
2023-02-20T05:18:02.009Z,31.17
2023-02-20T05:20:48.079Z,33.40
2023-02-20T05:23:15.351Z,32.92
2023-02-20T05:25:42.594Z,31.65
2023-02-20T05:28:09.819Z,33.15
2023-02-20T05:30:37.182Z,27.90
2023-02-20T05:33:04.497Z,35.33
2023-02-20T05:35:32.972Z,29.60
2023-02-20T05:38:00.254Z,32.50
2023-02-20T05:40:27.485Z,30.15
2023-02-20T05:42:54.791Z,28.65
2023-02-20T05:45:22.040Z,28.95
2023-02-20T05:47:49.559Z,33.67
2023-02-20T05:50:16.833Z,26.98
2023-02-20T05:52:44.897Z,32.33
2023-02-20T05:55:12.192Z,29.10
2023-02-20T05:57:39.457Z,26.98
2023-02-20T06:00:06.949Z,32.38
2023-02-20T06:02:39.209Z,24.67
2023-02-20T06:05:07.726Z,23.20
2023-02-20T06:07:35.429Z,23.42
2023-02-20T06:10:03.121Z,28.20
2023-02-20T06:12:30.380Z,29.52
2023-02-20T06:14:57.698Z,22.40
2023-02-20T06:17:25.019Z,23.63
2023-02-20T06:19:52.277Z,22.98
2023-02-20T06:22:19.726Z,20.67
2023-02-20T06:24:47.561Z,23.42
2023-02-20T06:27:18.437Z,22.80
2023-02-20T06:29:48.266Z,20.98
2023-02-20T06:32:16.488Z,27.27
2023-02-20T06:34:47.198Z,21.90
2023-02-20T06:37:14.490Z,24.42
2023-02-20T06:39:43.096Z,25.80
2023-02-20T06:42:10.360Z,24.20
2023-02-20T06:44:37.622Z,25.50
2023-02-20T06:47:08.915Z,27.10
2023-02-20T06:49:36.726Z,25.90
2023-02-20T06:52:04.421Z,21.40
2023-02-20T06:54:31.825Z,21.20
2023-02-20T06:56:59.399Z,21.92
2023-02-20T06:59:26.655Z,27.63
2023-02-20T07:01:53.943Z,22.48
2023-02-20T07:04:27.709Z,24.05
2023-02-20T07:06:56.217Z,23.13
2023-02-20T07:09:25.192Z,28.02
2023-02-20T07:11:53.629Z,24.50
2023-02-20T07:14:21.404Z,24.73
2023-02-20T07:16:48.659Z,20.30
2023-02-20T07:19:15.926Z,22.48
2023-02-20T07:21:43.198Z,18.63
2023-02-20T07:24:10.409Z,23.27
2023-02-20T07:26:39.433Z,25.23
2023-02-20T07:29:07.411Z,21.48
2023-02-20T07:31:34.773Z,18.75
2023-02-20T07:34:02.063Z,22.73
2023-02-20T07:36:35.482Z,20.08
2023-02-20T07:39:03.130Z,19.55
2023-02-20T07:41:37.243Z,22.20
2023-02-20T07:44:06.274Z,23.42
2023-02-20T07:46:34.163Z,22.40
2023-02-20T07:49:04.901Z,17.30
2023-02-20T07:51:32.708Z,20.10
2023-02-20T07:53:59.956Z,21.08
2023-02-20T07:56:27.349Z,23.73
2023-02-20T07:58:54.668Z,18.67
2023-02-20T08:01:22.018Z,23.77
2023-02-20T08:03:49.432Z,17.90
2023-02-20T08:06:20.304Z,19.85
2023-02-20T08:08:48.366Z,16.50
2023-02-20T08:11:15.667Z,17.40
2023-02-20T08:13:43.981Z,23.13
2023-02-20T08:16:11.588Z,19.17
2023-02-20T08:18:38.986Z,19.35
2023-02-20T08:21:06.318Z,23.42
2023-02-20T08:23:33.614Z,23.40
2023-02-20T08:26:00.859Z,20.48
2023-02-20T08:28:28.225Z,18.73
2023-02-20T08:30:55.444Z,25.58
2023-02-20T08:33:22.735Z,21.52
2023-02-20T08:35:53.927Z,20.90
2023-02-20T08:38:27.429Z,20.65
2023-02-20T08:40:54.681Z,20.83
2023-02-20T08:43:21.942Z,19.55
2023-02-20T08:45:49.240Z,18.15
2023-02-20T08:48:16.520Z,20.45
2023-02-20T08:50:43.806Z,24.13
2023-02-20T08:53:11.073Z,20.60
2023-02-20T08:55:38.317Z,25.70
2023-02-20T08:58:05.667Z,25.85
2023-02-20T09:00:34.436Z,21.23
2023-02-20T09:03:02.046Z,21.17
2023-02-20T09:05:29.382Z,23.67
2023-02-20T09:07:56.563Z,22.77
2023-02-20T09:10:24.596Z,25.63
2023-02-20T09:12:52.091Z,22.48
2023-02-20T09:15:19.356Z,25.98
2023-02-20T09:17:49.109Z,25.95
2023-02-20T09:20:16.848Z,23.35
2023-02-20T09:22:44.093Z,22.52
2023-02-20T09:25:12.371Z,24.48
2023-02-20T09:27:39.637Z,24.67
2023-02-20T09:30:07.159Z,23.52
2023-02-20T09:32:34.540Z,23.83
2023-02-20T09:35:01.844Z,23.67
2023-02-20T09:37:29.096Z,24.30
2023-02-20T09:39:56.342Z,26.83
2023-02-20T09:42:26.351Z,19.83
2023-02-20T09:45:02.608Z,23.20
2023-02-20T09:47:35.992Z,22.27
2023-02-20T09:50:06.139Z,22.20
2023-02-20T09:52:35.686Z,24.58
2023-02-20T09:57:30.592Z,20.90
2023-02-20T10:00:06.561Z,18.55
2023-02-20T10:02:36.394Z,22.27
2023-02-20T10:05:06.967Z,19.10
2023-02-20T10:07:35.630Z,19.42
2023-02-20T10:10:09.050Z,18.75
2023-02-20T10:12:43.101Z,19.40
2023-02-20T10:15:20.901Z,21.38
2023-02-20T10:17:49.089Z,16.95
2023-02-20T10:20:16.323Z,18.65
2023-02-20T10:22:46.736Z,21.85
2023-02-20T10:25:13.967Z,17.10
2023-02-20T10:27:59.993Z,17.40
2023-02-20T10:30:33.335Z,17.77
2023-02-20T10:33:27.229Z,16.35
2023-02-20T10:35:58.120Z,19.30
2023-02-20T10:38:30.372Z,19.85
2023-02-20T10:41:01.946Z,18.88
2023-02-20T10:43:34.033Z,18.33
2023-02-20T10:46:06.756Z,17.77
2023-02-20T10:48:34.933Z,18.30
2023-02-20T10:51:05.358Z,18.92
2023-02-20T10:53:38.176Z,17.38
2023-02-20T10:56:14.816Z,16.80
2023-02-20T10:58:47.991Z,19.42
2023-02-20T11:01:16.919Z,15.93
2023-02-20T11:03:44.189Z,16.70
2023-02-20T11:06:14.676Z,17.95
2023-02-20T11:08:42.136Z,17.38
2023-02-20T11:11:22.061Z,17.73
2023-02-20T11:13:49.343Z,18.52
2023-02-20T11:16:37.916Z,17.77
2023-02-20T11:19:11.182Z,21.38
2023-02-20T11:21:39.875Z,20.33
2023-02-20T11:24:18.454Z,19.48
2023-02-20T11:26:46.287Z,19.38
2023-02-20T11:29:16.664Z,23.77
2023-02-20T11:31:44.917Z,21.58
2023-02-20T11:34:17.946Z,21.55
2023-02-20T11:36:50.237Z,21.85
2023-02-20T11:39:28.069Z,23.48
2023-02-20T11:42:25.147Z,25.70
2023-02-20T11:45:18.951Z,22.98
2023-02-20T11:47:46.164Z,22.58
2023-02-20T11:50:19.846Z,24.63
2023-02-20T11:53:05.298Z,26.70
2023-02-20T11:55:32.914Z,24.60
2023-02-20T11:58:00.283Z,26.20
2023-02-20T12:00:28.806Z,25.02
2023-02-20T12:05:44.446Z,21.83
2023-02-20T12:08:30.605Z,23.30
2023-02-20T12:11:01.086Z,26.05
2023-02-20T12:13:28.782Z,24.90
2023-02-20T12:16:00.687Z,24.00
2023-02-20T12:18:34.594Z,24.63
2023-02-20T12:21:22.119Z,24.65
2023-02-20T12:24:05.534Z,22.35
2023-02-20T12:26:44.562Z,22.60
2023-02-20T12:29:17.818Z,23.13
2023-02-20T12:31:48.063Z,20.75
2023-02-20T12:34:22.104Z,24.45
2023-02-20T12:36:49.362Z,22.38
2023-02-20T12:39:17.010Z,24.27
2023-02-20T12:42:03.306Z,21.58
2023-02-20T12:44:45.870Z,24.90
2023-02-20T12:47:32.242Z,23.10
2023-02-20T12:49:59.445Z,20.90
2023-02-20T12:52:45.239Z,25.80
2023-02-20T12:55:21.786Z,26.02
2023-02-20T12:57:49.002Z,26.88
2023-02-20T13:00:22.364Z,24.23
2023-02-20T13:02:52.023Z,25.50
2023-02-20T13:05:21.290Z,23.15
2023-02-20T13:07:54.984Z,30.38
2023-02-20T13:10:30.804Z,23.77
2023-02-20T13:15:36.692Z,22.58
2023-02-20T13:18:20.654Z,21.27
2023-02-20T13:20:50.699Z,24.35
2023-02-20T13:23:17.916Z,26.48
2023-02-20T13:25:46.361Z,22.00
2023-02-20T13:28:13.559Z,24.52
2023-02-20T13:30:41.579Z,22.00
2023-02-20T13:33:23.588Z,20.73
2023-02-20T13:35:55.093Z,21.42
2023-02-20T13:38:23.699Z,24.13
2023-02-20T13:40:57.134Z,25.10
2023-02-20T13:43:27.937Z,25.30
2023-02-20T13:46:03.243Z,24.98
2023-02-20T13:48:30.494Z,23.45
2023-02-20T13:51:19.848Z,24.40
2023-02-20T13:53:49.772Z,28.83
2023-02-20T13:56:16.937Z,25.00
2023-02-20T13:58:45.755Z,32.28
2023-02-20T14:01:13.080Z,27.65
2023-02-20T14:03:40.354Z,26.88
2023-02-20T14:06:08.168Z,27.13
2023-02-20T14:08:36.348Z,27.42
2023-02-20T14:11:15.391Z,27.27
2023-02-20T14:13:46.604Z,30.05
2023-02-20T14:16:31.170Z,29.65
2023-02-20T14:19:03.161Z,28.95
2023-02-20T14:21:30.550Z,27.23
2023-02-20T14:23:57.913Z,27.02
2023-02-20T14:26:25.228Z,26.52
2023-02-20T14:28:53.775Z,30.55
2023-02-20T14:31:39.839Z,29.25
2023-02-20T14:34:25.995Z,26.95
2023-02-20T14:36:53.450Z,30.20
2023-02-20T14:39:39.292Z,32.80
2023-02-20T14:42:07.326Z,35.10
2023-02-20T14:44:34.686Z,29.98
2023-02-20T14:47:13.689Z,32.03
2023-02-20T14:49:41.123Z,26.08
2023-02-20T14:52:11.220Z,29.58
2023-02-20T14:54:39.277Z,25.00
2023-02-20T14:57:06.730Z,32.13
2023-02-20T14:59:38.775Z,30.70
2023-02-20T15:02:33.365Z,30.90
2023-02-20T15:05:04.168Z,24.23
2023-02-20T15:07:31.827Z,28.33
2023-02-20T15:10:01.992Z,29.00
2023-02-20T15:12:29.254Z,30.50
2023-02-20T15:14:59.255Z,27.30
2023-02-20T15:17:27.949Z,29.42
2023-02-20T15:19:55.411Z,29.73
2023-02-20T15:22:27.293Z,31.13
2023-02-20T15:24:54.659Z,28.48
2023-02-20T15:27:24.375Z,31.02
2023-02-20T15:30:08.481Z,32.78
2023-02-20T15:32:36.378Z,31.20
2023-02-20T15:35:03.678Z,34.38
2023-02-20T15:37:39.029Z,31.80
2023-02-20T15:40:19.017Z,30.17
2023-02-20T15:42:46.309Z,30.10
2023-02-20T15:45:14.207Z,31.52
2023-02-20T15:47:41.781Z,32.35
2023-02-20T15:50:09.454Z,33.03
2023-02-20T15:52:36.647Z,33.03
2023-02-20T15:55:04.241Z,30.33
2023-02-20T15:57:31.455Z,30.90
2023-02-20T16:00:00.510Z,30.05
2023-02-20T16:02:27.857Z,34.00
2023-02-20T16:04:55.230Z,30.30
2023-02-20T16:07:22.570Z,29.38
2023-02-20T16:09:49.939Z,29.25
2023-02-20T16:12:18.153Z,30.92
2023-02-20T16:14:45.803Z,30.25
2023-02-20T16:17:22.959Z,29.90
2023-02-20T16:19:50.215Z,28.52
2023-02-20T16:22:17.567Z,29.35
2023-02-20T16:24:45.038Z,31.52
2023-02-20T16:27:23.760Z,26.80
2023-02-20T16:29:53.012Z,28.02
2023-02-20T16:32:30.239Z,29.17
2023-02-20T16:34:58.743Z,28.33
2023-02-20T16:37:26.850Z,27.17
2023-02-20T16:39:54.103Z,28.58
2023-02-20T16:42:25.545Z,26.42
2023-02-20T16:44:58.701Z,27.58
2023-02-20T16:47:31.078Z,28.38
2023-02-20T16:50:01.481Z,26.65
2023-02-20T16:52:28.891Z,28.27
2023-02-20T16:54:56.702Z,30.63
2023-02-20T16:57:24.284Z,26.10
2023-02-20T16:59:55.358Z,26.67
2023-02-20T17:02:24.805Z,26.13
2023-02-20T17:04:52.327Z,25.00
2023-02-20T17:07:19.650Z,26.50
2023-02-20T17:09:47.003Z,27.10
2023-02-20T17:12:15.958Z,30.85
2023-02-20T17:14:43.391Z,29.35
2023-02-20T17:17:10.882Z,27.30
2023-02-20T17:19:39.281Z,27.15
2023-02-20T17:22:06.818Z,30.88
2023-02-20T17:24:34.350Z,30.48
2023-02-20T17:27:02.177Z,29.35
2023-02-20T17:29:29.751Z,26.00
2023-02-20T17:31:57.134Z,26.00
2023-02-20T17:34:24.475Z,28.98
2023-02-20T17:36:51.966Z,27.42
2023-02-20T17:39:21.315Z,28.05
2023-02-20T17:41:48.940Z,28.45
2023-02-20T17:44:17.422Z,28.40
2023-02-20T17:46:44.792Z,29.05
2023-02-20T17:49:12.928Z,30.95
2023-02-20T17:51:40.210Z,26.48
2023-02-20T17:54:07.488Z,28.83
2023-02-20T17:56:34.897Z,26.65
2023-02-20T17:59:02.161Z,27.48
2023-02-20T18:01:29.451Z,25.67
2023-02-20T18:03:56.837Z,25.55
2023-02-20T18:06:24.097Z,26.90
2023-02-20T18:08:51.435Z,27.25
2023-02-20T18:11:18.963Z,24.70
2023-02-20T18:13:46.217Z,22.48
2023-02-20T18:16:14.430Z,29.05
2023-02-20T18:18:42.408Z,28.65
2023-02-20T18:21:18.914Z,26.55
2023-02-20T18:23:46.519Z,28.70
2023-02-20T18:26:14.716Z,29.40
2023-02-20T18:28:42.169Z,27.38
2023-02-20T18:31:09.959Z,32.13
2023-02-20T18:33:37.430Z,28.83
2023-02-20T18:36:08.266Z,28.45
2023-02-20T18:38:35.887Z,26.90
2023-02-20T18:41:03.285Z,32.47
2023-02-20T18:43:30.718Z,28.25
2023-02-20T18:45:58.079Z,27.30
2023-02-20T18:48:25.391Z,31.73
2023-02-20T18:50:52.653Z,29.25
2023-02-20T18:53:19.994Z,29.95
2023-02-20T18:55:47.242Z,27.58
2023-02-20T18:58:14.524Z,29.92
2023-02-20T19:00:41.828Z,27.80
2023-02-20T19:03:09.256Z,33.75
2023-02-20T19:05:36.545Z,29.83
2023-02-20T19:08:04.634Z,31.55
2023-02-20T19:10:32.183Z,35.15
2023-02-20T19:12:59.555Z,32.30
2023-02-20T19:15:26.941Z,28.17
2023-02-20T19:17:54.667Z,29.95
2023-02-20T19:20:28.762Z,30.10
2023-02-20T19:22:56.400Z,30.52
2023-02-20T19:25:23.852Z,30.75
2023-02-20T19:27:51.218Z,31.23
2023-02-20T19:30:21.124Z,31.30
2023-02-20T19:32:48.560Z,29.02
2023-02-20T19:35:19.044Z,28.15
2023-02-20T19:37:46.274Z,30.90
2023-02-20T19:40:13.505Z,31.50
2023-02-20T19:42:41.246Z,27.92
2023-02-20T19:45:08.690Z,33.15
2023-02-20T19:47:36.061Z,30.20
2023-02-20T19:50:03.642Z,29.63
2023-02-20T19:52:30.913Z,31.15
2023-02-20T19:54:58.130Z,32.42
2023-02-20T19:57:25.690Z,28.85
2023-02-20T19:59:53.035Z,30.52
2023-02-20T20:02:25.161Z,31.17
2023-02-20T20:04:52.772Z,30.90
2023-02-20T20:07:20.075Z,31.20
2023-02-20T20:09:47.351Z,29.33
2023-02-20T20:12:33.224Z,34.15
2023-02-20T20:15:00.493Z,30.60
2023-02-20T20:17:27.783Z,33.92
2023-02-20T20:19:59.278Z,31.85
2023-02-20T20:22:28.014Z,32.35
2023-02-20T20:24:55.370Z,35.50
2023-02-20T20:27:23.534Z,35.47
2023-02-20T20:29:51.209Z,37.05
2023-02-20T20:32:19.160Z,34.70
2023-02-20T20:34:52.483Z,34.17
2023-02-20T20:37:20.634Z,34.60
2023-02-20T20:39:50.063Z,43.72
2023-02-20T20:42:17.956Z,42.50
2023-02-20T20:44:45.212Z,40.67
2023-02-20T20:47:12.448Z,41.22
2023-02-20T20:49:39.785Z,43.38
2023-02-20T20:52:07.125Z,38.65
2023-02-20T20:54:34.444Z,38.95
2023-02-20T20:57:01.637Z,38.13
2023-02-20T20:59:28.856Z,37.60
2023-02-20T21:01:56.104Z,35.75
2023-02-20T21:04:23.425Z,37.75
2023-02-20T21:06:50.667Z,33.58
2023-02-20T21:09:17.854Z,36.40
2023-02-20T21:11:45.236Z,35.45
2023-02-20T21:14:12.501Z,37.38
2023-02-20T21:16:39.810Z,34.78
2023-02-20T21:19:07.198Z,36.40
2023-02-20T21:21:34.582Z,35.38
2023-02-20T21:24:01.835Z,36.80
2023-02-20T21:26:29.353Z,32.92
2023-02-20T21:28:56.645Z,33.10
2023-02-20T21:31:24.073Z,37.75
2023-02-20T21:33:52.466Z,33.28
2023-02-20T21:36:20.396Z,34.35
2023-02-20T21:38:47.704Z,34.00
2023-02-20T21:41:37.080Z,35.67
2023-02-20T21:44:22.967Z,32.45
2023-02-20T21:46:50.840Z,31.73
2023-02-20T21:49:18.498Z,35.38
2023-02-20T21:51:45.918Z,38.00
2023-02-20T21:54:13.385Z,38.00
2023-02-20T21:56:40.689Z,35.08
2023-02-20T21:59:07.935Z,36.42
2023-02-20T22:01:36.426Z,34.97
2023-02-20T22:04:04.638Z,34.33
2023-02-20T22:06:31.881Z,35.65
2023-02-20T22:09:17.925Z,33.95
2023-02-20T22:12:03.937Z,33.10
2023-02-20T22:14:49.701Z,36.60
2023-02-20T22:17:35.574Z,33.25
2023-02-20T22:20:22.016Z,32.22
2023-02-20T22:23:07.987Z,31.83
2023-02-20T22:25:53.983Z,33.60
2023-02-20T22:28:40.668Z,35.58
2023-02-20T22:31:26.418Z,34.45
2023-02-20T22:34:12.284Z,30.20
2023-02-20T22:36:58.216Z,29.67
2023-02-20T22:39:44.328Z,29.63
2023-02-20T22:42:35.227Z,32.30
2023-02-20T22:45:21.690Z,31.02
2023-02-20T22:48:07.535Z,30.52
2023-02-20T22:50:53.482Z,30.35
2023-02-20T22:53:39.384Z,30.80
2023-02-20T22:56:25.267Z,33.70
2023-02-20T22:59:11.176Z,30.38
2023-02-20T23:01:57.527Z,28.98
2023-02-20T23:04:43.383Z,32.30
2023-02-20T23:07:29.323Z,32.05
2023-02-20T23:10:15.201Z,27.13
2023-02-20T23:13:00.921Z,30.40
2023-02-20T23:15:46.841Z,26.77
2023-02-20T23:18:32.962Z,30.67
2023-02-20T23:21:18.745Z,33.75
2023-02-20T23:24:05.884Z,29.33
2023-02-20T23:26:52.043Z,29.45
2023-02-20T23:29:38.097Z,29.58
2023-02-20T23:32:24.557Z,35.80
2023-02-20T23:35:10.595Z,33.10
2023-02-20T23:37:56.469Z,29.50
2023-02-20T23:40:42.578Z,32.92
2023-02-20T23:43:28.643Z,34.85
2023-02-20T23:46:14.676Z,36.55
2023-02-20T23:49:00.642Z,34.58
2023-02-20T23:51:46.708Z,35.50
2023-02-20T23:54:32.574Z,34.72
2023-02-20T23:57:18.461Z,32.97
